Time;durP1;ratioP1;P1;durP2;ratioP2;P2;SDS_P1;SDS_P2;PMS_P1;PMS_P2;Temp;Humidity;BMP_temperature;BMP_pressure;BME280_temperature;BME280_humidity;BME280_pressure;Samples;Min_cycle;Max_cycle;Signal;HPM_P1;HPM_P2
2023/03/19 07:10:34;;;;;;;9.07;5.30;;;8.60;99.90;;;;;;5132470;27;20314;-76
2023/03/19 07:17:51;;;;;;;9.90;5.30;;;8.80;99.90;;;;;;5132005;27;20277;-76
2023/03/19 07:25:52;;;;;;;9.90;7.23;;;8.80;99.90;;;;;;5132037;27;20268;-75
2023/03/19 07:33:20;;;;;;;6.23;4.87;;;9.00;99.90;;;;;;5132285;27;20273;-75
2023/03/19 07:40:50;;;;;;;8.37;4.87;;;8.90;99.90;;;;;;5132620;27;20289;-75
2023/03/19 07:48:06;;;;;;;8.60;5.27;;;8.90;99.90;;;;;;5070807;28;20606;-74
2023/03/19 07:54:20;;;;;;;10.37;6.27;;;8.90;99.90;;;;;;5132813;27;20273;-76
2023/03/19 07:59:46;;;;;;;10.97;6.23;;;9.20;99.90;;;;;;5132802;27;20273;-75
2023/03/19 08:05:00;;;;;;;10.53;6.43;;;9.10;99.90;;;;;;5132698;27;20646;-75
2023/03/19 08:09:12;;;;;;;9.23;5.40;;;9.30;99.90;;;;;;5132693;27;20278;-76
2023/03/19 08:12:53;;;;;;;7.10;5.60;;;9.40;99.90;;;;;;5132055;27;20275;-75
2023/03/19 08:15:18;;;;;;;11.27;5.07;;;9.70;99.90;;;;;;5132301;28;20513;-75
2023/03/19 08:17:44;;;;;;;9.20;6.20;;;9.70;99.90;;;;;;5131970;28;20644;-75
2023/03/19 08:20:13;;;;;;;15.37;7.20;;;10.00;99.90;;;;;;5114815;28;20282;-76
2023/03/19 08:22:39;;;;;;;10.00;5.37;;;10.00;99.90;;;;;;5131863;27;20220;-75
2023/03/19 08:25:05;;;;;;;42.33;26.63;;;10.10;99.90;;;;;;5130698;28;20170;-75
2023/03/19 08:27:34;;;;;;;10.87;7.87;;;10.30;99.90;;;;;;5131867;27;20171;-76
2023/03/19 08:30:01;;;;;;;11.00;7.33;;;10.30;99.90;;;;;;5130900;28;20186;-76
2023/03/19 08:32:27;;;;;;;5.20;4.03;;;10.30;99.90;;;;;;5132899;27;20189;-79
2023/03/19 08:34:53;;;;;;;6.23;3.70;;;10.30;99.90;;;;;;5132229;27;20198;-76
2023/03/19 08:37:18;;;;;;;9.23;4.20;;;10.40;99.90;;;;;;5132963;27;20195;-77
2023/03/19 08:39:44;;;;;;;6.97;4.10;;;10.70;99.90;;;;;;5138319;27;20171;-78
2023/03/19 08:42:10;;;;;;;5.67;4.23;;;10.70;99.90;;;;;;5132775;27;20167;-77
2023/03/19 08:44:36;;;;;;;5.00;3.43;;;10.90;99.90;;;;;;5134644;27;20179;-77
2023/03/19 08:47:02;;;;;;;10.10;4.90;;;11.00;99.90;;;;;;5131807;27;20171;-77
2023/03/19 08:49:28;;;;;;;8.37;4.93;;;11.10;99.90;;;;;;5131848;27;20163;-77
2023/03/19 08:51:54;;;;;;;5.60;3.87;;;11.00;99.90;;;;;;5131160;27;20228;-76
2023/03/19 08:54:19;;;;;;;4.50;3.63;;;11.10;99.90;;;;;;5132684;27;20637;-78
2023/03/19 08:56:45;;;;;;;6.97;3.53;;;11.20;99.90;;;;;;5135070;27;20164;-77
2023/03/19 08:59:11;;;;;;;24.93;19.67;;;11.30;99.90;;;;;;5130070;28;20204;-75
2023/03/19 09:01:37;;;;;;;6.43;4.97;;;11.40;99.90;;;;;;5131546;27;20549;-75
2023/03/19 09:04:02;;;;;;;8.80;6.90;;;11.50;99.90;;;;;;5145199;27;20170;-75
2023/03/19 09:06:30;;;;;;;6.07;4.00;;;11.50;99.90;;;;;;5151222;27;20170;-75
2023/03/19 09:08:55;;;;;;;6.57;3.43;;;11.60;99.90;;;;;;5151349;27;20646;-75
2023/03/19 09:11:22;;;;;;;6.90;3.70;;;11.80;99.90;;;;;;5150963;27;20239;-75
2023/03/19 09:13:48;;;;;;;5.67;3.63;;;12.00;99.90;;;;;;5151455;27;20163;-74
2023/03/19 09:16:14;;;;;;;4.77;3.23;;;12.10;99.90;;;;;;5150222;27;20174;-76
2023/03/19 09:18:40;;;;;;;6.20;3.57;;;12.30;99.90;;;;;;5151254;27;20173;-75
2023/03/19 09:21:06;;;;;;;4.63;3.33;;;12.70;99.90;;;;;;5149970;27;20198;-75
2023/03/19 09:23:31;;;;;;;5.87;2.77;;;12.90;99.90;;;;;;5141458;27;20171;-75
2023/03/19 09:25:57;;;;;;;4.80;3.27;;;12.90;99.90;;;;;;5137796;27;20250;-75
2023/03/19 09:28:23;;;;;;;3.77;2.60;;;12.90;99.90;;;;;;5137827;27;20170;-76
2023/03/19 09:30:50;;;;;;;4.43;3.00;;;12.80;99.90;;;;;;5136050;27;20223;-75
2023/03/19 09:33:18;;;;;;;5.60;2.43;;;13.00;99.90;;;;;;5137212;27;20169;-75
2023/03/19 09:35:51;;;;;;;8.10;6.33;;;12.90;99.90;;;;;;5137402;27;20176;-75
2023/03/19 09:38:16;;;;;;;4.70;3.00;;;13.00;99.90;;;;;;5137578;27;20154;-75
2023/03/19 09:41:13;;;;;;;4.60;2.50;;;13.00;99.90;;;;;;5137504;27;20550;-77
2023/03/19 09:43:51;;;;;;;5.53;3.10;;;13.10;99.90;;;;;;5137235;27;20156;-76
2023/03/19 09:46:21;;;;;;;8.93;5.00;;;13.20;99.90;;;;;;5137100;27;20166;-76
2023/03/19 09:49:00;;;;;;;3.80;3.00;;;13.20;99.90;;;;;;5137854;27;20300;-76
2023/03/19 09:51:52;;;;;;;5.07;4.37;;;13.40;99.90;;;;;;5137074;27;20209;-76
2023/03/19 09:54:41;;;;;;;4.77;2.73;;;13.60;99.90;;;;;;5137755;27;20646;-76
2023/03/19 09:57:08;;;;;;;2.67;2.03;;;13.80;99.90;;;;;;5136553;27;20261;-76
2023/03/19 09:59:34;;;;;;;3.23;2.10;;;13.50;99.90;;;;;;5138139;27;20175;-76
2023/03/19 10:02:20;;;;;;;5.00;2.33;;;13.40;99.90;;;;;;5135366;27;20199;-75
2023/03/19 10:05:20;;;;;;;2.90;2.40;;;13.50;99.90;;;;;;5137033;27;20175;-75
2023/03/19 10:08:08;;;;;;;3.67;2.47;;;13.70;99.90;;;;;;5135459;27;20576;-75
2023/03/19 10:10:47;;;;;;;3.17;2.07;;;14.40;99.90;;;;;;5135097;27;20323;-75
2023/03/19 10:13:28;;;;;;;3.93;2.17;;;14.40;98.60;;;;;;5135192;27;20639;-75
2023/03/19 10:15:54;;;;;;;3.40;2.40;;;14.40;99.90;;;;;;5137183;27;20202;-75
2023/03/19 10:18:27;;;;;;;5.97;3.80;;;14.50;99.60;;;;;;5136566;27;20177;-76
2023/03/19 10:21:33;;;;;;;5.63;2.90;;;14.70;99.90;;;;;;5136571;27;20276;-76
2023/03/19 10:24:02;;;;;;;8.50;2.77;;;14.70;98.90;;;;;;5136820;27;20171;-76
2023/03/19 10:26:33;;;;;;;5.63;2.70;;;14.00;99.90;;;;;;5136252;27;20174;-76
2023/03/19 10:29:13;;;;;;;6.13;2.50;;;13.50;98.80;;;;;;5136242;27;20688;-76
2023/03/19 10:31:45;;;;;;;11.57;10.47;;;13.20;99.90;;;;;;5136647;27;20287;-75
2023/03/19 10:34:28;;;;;;;4.70;3.20;;;13.00;99.90;;;;;;5134157;27;20204;-76
2023/03/19 10:37:04;;;;;;;5.40;2.90;;;13.00;99.90;;;;;;5136119;27;20161;-76
2023/03/19 10:39:35;;;;;;;7.57;2.30;;;12.90;99.90;;;;;;5119034;27;20184;-77
2023/03/19 10:42:42;;;;;;;3.30;2.33;;;13.00;99.90;;;;;;5115242;28;20189;-75
2023/03/19 10:45:19;;;;;;;6.27;2.47;;;13.10;99.90;;;;;;5113945;28;20229;-75
2023/03/19 10:47:45;;;;;;;6.97;2.40;;;13.10;99.90;;;;;;5115523;28;20220;-75
2023/03/19 10:50:17;;;;;;;3.60;2.60;;;13.20;99.90;;;;;;5115202;28;20187;-76
2023/03/19 10:52:44;;;;;;;4.57;1.90;;;13.30;99.90;;;;;;5115216;28;20680;-76
2023/03/19 10:55:22;;;;;;;3.57;2.13;;;13.40;99.60;;;;;;5115327;28;20164;-75
2023/03/19 10:57:50;;;;;;;4.13;2.40;;;13.70;99.70;;;;;;5115192;28;20153;-75
2023/03/19 11:00:24;;;;;;;4.57;2.50;;;14.50;99.90;;;;;;5114895;28;20561;-75
2023/03/19 11:02:55;;;;;;;2.97;2.10;;;15.20;97.00;;;;;;5115022;28;20161;-76
2023/03/19 11:05:20;;;;;;;3.73;2.40;;;15.60;98.30;;;;;;5115507;28;20173;-76
2023/03/19 11:07:54;;;;;;;4.17;2.30;;;15.60;95.50;;;;;;5115067;28;20212;-76
2023/03/19 11:10:23;;;;;;;4.20;2.63;;;15.00;94.90;;;;;;5115302;28;20196;-77
2023/03/19 11:12:56;;;;;;;7.77;2.20;;;15.20;94.40;;;;;;5114591;28;20253;-76
2023/03/19 11:15:27;;;;;;;3.37;2.50;;;15.40;95.50;;;;;;5114871;28;20159;-77
2023/03/19 11:17:59;;;;;;;3.63;3.10;;;15.10;97.30;;;;;;5115604;28;20156;-77
2023/03/19 11:20:33;;;;;;;113.60;55.40;;;15.00;95.60;;;;;;5115253;28;20538;-76
2023/03/19 11:23:02;;;;;;;8.27;5.07;;;14.60;95.40;;;;;;5114769;28;20167;-77
2023/03/19 11:25:40;;;;;;;4.77;3.67;;;14.20;96.00;;;;;;5114994;28;20306;-77
2023/03/19 11:28:16;;;;;;;4.37;2.90;;;14.20;96.60;;;;;;5114873;28;20241;-76
2023/03/19 11:31:15;;;;;;;4.60;4.10;;;14.40;97.60;;;;;;5113500;28;20198;-77
2023/03/19 11:33:54;;;;;;;4.50;2.50;;;14.60;98.40;;;;;;5113218;28;20166;-76
2023/03/19 11:36:32;;;;;;;5.23;3.57;;;14.70;97.70;;;;;;5114840;28;20187;-76
2023/03/19 11:39:10;;;;;;;3.83;2.57;;;14.70;96.30;;;;;;5114598;28;20160;-76
2023/03/19 11:41:59;;;;;;;4.03;2.40;;;14.60;97.10;;;;;;5114659;28;20284;-76
2023/03/19 11:44:50;;;;;;;5.23;4.70;;;14.60;96.20;;;;;;5113673;28;20675;-77
2023/03/19 11:47:29;;;;;;;4.83;3.53;;;14.80;96.30;;;;;;5114163;28;20265;-77
2023/03/19 11:49:58;;;;;;;2.60;2.03;;;15.30;95.50;;;;;;5113044;28;20164;-77
2023/03/19 11:52:34;;;;;;;8.40;3.90;;;15.40;96.20;;;;;;5112863;28;20207;-76
2023/03/19 11:55:08;;;;;;;6.30;2.67;;;15.90;96.40;;;;;;5114356;28;20148;-77
2023/03/19 11:57:40;;;;;;;3.53;2.37;;;16.00;93.30;;;;;;5114744;28;20166;-76
2023/03/19 12:00:24;;;;;;;3.67;2.93;;;15.90;93.00;;;;;;5114117;28;20190;-77
2023/03/19 12:02:57;;;;;;;5.93;4.73;;;16.00;91.60;;;;;;5112839;28;20171;-77
2023/03/19 12:05:27;;;;;;;5.67;2.63;;;16.00;92.10;;;;;;5115561;28;20228;-77
2023/03/19 12:08:18;;;;;;;4.07;3.10;;;16.10;92.40;;;;;;5114791;28;20168;-77
2023/03/19 12:10:51;;;;;;;4.57;2.60;;;16.30;92.70;;;;;;5114153;28;20590;-77
2023/03/19 12:13:28;;;;;;;3.47;2.90;;;16.30;90.30;;;;;;5112568;28;20164;-77
2023/03/19 12:16:13;;;;;;;8.37;7.57;;;15.60;90.90;;;;;;5114266;28;20523;-76
2023/03/19 12:18:59;;;;;;;3.20;2.63;;;15.40;90.80;;;;;;5114163;28;20242;-76
2023/03/19 12:21:30;;;;;;;3.60;3.03;;;15.30;91.10;;;;;;5113870;28;20590;-76
2023/03/19 12:24:18;;;;;;;11.10;9.30;;;15.50;92.00;;;;;;5112611;28;20221;-76
2023/03/19 12:26:46;;;;;;;6.47;4.47;;;16.40;93.50;;;;;;5113849;28;20167;-76
2023/03/19 12:29:51;;;;;;;7.63;6.10;;;16.70;91.40;;;;;;5113916;28;20196;-77
2023/03/19 12:32:36;;;;;;;4.63;3.20;;;17.10;92.20;;;;;;5112606;28;20252;-76
2023/03/19 12:35:10;;;;;;;23.63;18.37;;;17.50;88.60;;;;;;5113890;28;20536;-77
2023/03/19 12:38:11;;;;;;;7.47;3.60;;;17.10;90.50;;;;;;5113833;28;20160;-77
2023/03/19 12:40:50;;;;;;;8.57;4.53;;;17.30;87.60;;;;;;5100143;28;20208;-77
2023/03/19 12:43:36;;;;;;;5.40;3.67;;;17.80;90.30;;;;;;5112959;28;20165;-78
2023/03/19 12:46:11;;;;;;;4.53;3.23;;;17.40;85.50;;;;;;5114147;28;20162;-78
2023/03/19 12:48:50;;;;;;;4.63;3.27;;;16.80;88.10;;;;;;5114771;28;20186;-79
2023/03/19 12:51:20;;;;;;;5.17;2.97;;;16.60;88.10;;;;;;5112523;28;20248;-77
2023/03/19 12:54:03;;;;;;;5.90;2.83;;;16.40;86.70;;;;;;5112470;28;20156;-77
2023/03/19 12:56:31;;;;;;;4.50;2.50;;;16.00;88.10;;;;;;5114122;28;20176;-77
2023/03/19 12:59:21;;;;;;;4.13;2.83;;;16.00;88.90;;;;;;5116262;28;20525;-77
2023/03/19 13:01:52;;;;;;;4.70;2.83;;;16.00;88.40;;;;;;5117463;28;20240;-78
2023/03/19 13:04:29;;;;;;;4.10;2.47;;;16.00;85.30;;;;;;5123457;28;20175;-78
2023/03/19 13:06:58;;;;;;;4.43;2.73;;;16.00;88.40;;;;;;5129952;28;20234;-77
2023/03/19 13:09:42;;;;;;;3.53;2.70;;;16.00;87.20;;;;;;5120748;28;20535;-77
2023/03/19 13:12:29;;;;;;;4.73;3.00;;;15.90;88.80;;;;;;5123565;28;20217;-77
2023/03/19 13:15:02;;;;;;;4.03;2.37;;;15.80;86.10;;;;;;5127239;28;20164;-77
2023/03/19 13:17:53;;;;;;;3.03;2.40;;;15.80;87.50;;;;;;5122298;28;20175;-77
2023/03/19 13:20:38;;;;;;;4.00;2.50;;;16.10;85.60;;;;;;5115981;28;20203;-77
2023/03/19 13:23:06;;;;;;;4.37;3.13;;;15.90;85.20;;;;;;5116010;28;20168;-77
2023/03/19 13:25:44;;;;;;;4.90;2.47;;;15.90;85.20;;;;;;5115914;28;20180;-76
2023/03/19 13:28:17;;;;;;;2.57;2.10;;;16.70;82.80;;;;;;5116954;28;20246;-77
2023/03/19 13:31:02;;;;;;;4.60;2.37;;;17.60;83.70;;;;;;5117003;28;20230;-76
2023/03/19 13:33:28;;;;;;;4.13;2.60;;;18.10;81.50;;;;;;5116805;27;20255;-77
2023/03/19 13:35:55;;;;;;;4.33;2.63;;;18.20;77.40;;;;;;5117179;28;20182;-77
2023/03/19 13:38:26;;;;;;;3.87;2.63;;;19.00;78.20;;;;;;5115411;28;20542;-77
2023/03/19 13:40:54;;;;;;;4.50;2.67;;;19.80;74.70;;;;;;5116945;28;20181;-76
2023/03/19 13:43:29;;;;;;;6.77;3.23;;;19.30;75.60;;;;;;5116470;28;20165;-77
2023/03/19 13:46:14;;;;;;;3.27;2.80;;;18.40;76.80;;;;;;5116993;28;20178;-77
2023/03/19 13:48:49;;;;;;;3.33;2.70;;;18.20;81.30;;;;;;5117216;28;20250;-77
2023/03/19 13:51:14;;;;;;;4.47;2.60;;;18.10;78.50;;;;;;5116472;28;20256;-77
2023/03/19 13:53:53;;;;;;;4.33;2.87;;;18.00;78.80;;;;;;5116216;28;20176;-77
2023/03/19 13:56:19;;;;;;;3.37;2.43;;;18.30;80.20;;;;;;5116917;28;20577;-77
2023/03/19 13:59:12;;;;;;;4.10;2.90;;;19.00;78.50;;;;;;5116929;28;20170;-77
2023/03/19 14:01:40;;;;;;;3.80;2.77;;;19.10;74.40;;;;;;5116039;28;20249;-76
2023/03/19 14:04:31;;;;;;;3.27;2.67;;;18.50;72.30;;;;;;5116715;28;20204;-77
2023/03/19 14:07:10;;;;;;;2.93;2.50;;;17.90;75.00;;;;;;5115270;28;20248;-76
2023/03/19 14:09:39;;;;;;;3.80;2.53;;;17.50;72.60;;;;;;5116348;28;20171;-77
2023/03/19 14:12:17;;;;;;;3.83;2.57;;;17.60;74.40;;;;;;5123704;28;20580;-75
2023/03/19 14:14:56;;;;;;;2.97;2.07;;;17.70;77.50;;;;;;5132609;28;20180;-75
2023/03/19 14:17:26;;;;;;;2.90;2.43;;;19.30;74.80;;;;;;5117022;28;20182;-81
2023/03/19 14:19:53;;;;;;;2.87;2.50;;;20.20;71.30;;;;;;5114878;28;20173;-76
2023/03/19 14:22:40;;;;;;;4.37;2.70;;;19.40;69.20;;;;;;5116749;28;20202;-78
2023/03/19 14:25:15;;;;;;;4.37;2.60;;;18.90;71.40;;;;;;5114478;28;20178;-76
2023/03/19 14:27:49;;;;;;;3.20;2.60;;;18.50;71.70;;;;;;5116239;28;20171;-76
2023/03/19 14:30:23;;;;;;;5.93;2.53;;;18.00;73.50;;;;;;5114196;28;20206;-76
2023/03/19 14:32:51;;;;;;;2.90;2.10;;;17.10;74.80;;;;;;5115268;28;20205;-76
2023/03/19 14:35:19;;;;;;;3.23;2.30;;;16.50;77.00;;;;;;5114028;28;20175;-76
2023/03/19 14:37:47;;;;;;;3.73;2.40;;;16.30;81.00;;;;;;5115659;28;20178;-77
2023/03/19 14:40:30;;;;;;;5.70;2.93;;;16.20;81.10;;;;;;5114060;28;20696;-76
2023/03/19 14:43:22;;;;;;;3.67;2.47;;;16.00;82.80;;;;;;5113939;28;20609;-77
2023/03/19 14:46:02;;;;;;;4.43;2.83;;;15.90;81.80;;;;;;5113975;28;20204;-76
2023/03/19 14:48:49;;;;;;;3.80;2.30;;;15.80;83.60;;;;;;5115750;28;20233;-76
2023/03/19 14:51:20;;;;;;;3.30;2.40;;;15.90;80.70;;;;;;5115068;28;20207;-77
2023/03/19 14:53:55;;;;;;;2.60;2.10;;;15.80;81.40;;;;;;5115104;28;20160;-77
2023/03/19 14:56:26;;;;;;;3.90;2.50;;;15.70;79.10;;;;;;5115257;28;20161;-77
2023/03/19 14:58:56;;;;;;;4.80;2.50;;;15.50;79.90;;;;;;5115292;28;20263;-77
2023/03/19 15:01:25;;;;;;;3.47;2.57;;;15.30;79.80;;;;;;5115014;28;20285;-78
2023/03/19 15:04:12;;;;;;;5.07;4.00;;;15.20;80.10;;;;;;5114803;28;20177;-77
2023/03/19 15:06:40;;;;;;;57.17;4.27;;;15.10;81.80;;;;;;5115053;28;20166;-78
2023/03/19 15:09:19;;;;;;;3.63;2.70;;;15.10;81.70;;;;;;5114031;28;20188;-77
2023/03/19 15:12:16;;;;;;;4.67;3.37;;;14.90;80.40;;;;;;5113130;28;20299;-77
2023/03/19 15:14:52;;;;;;;4.30;2.57;;;14.80;82.70;;;;;;5113505;28;20166;-77
2023/03/19 15:17:18;;;;;;;3.60;2.47;;;14.90;81.70;;;;;;5114559;28;20163;-77
2023/03/19 15:19:44;;;;;;;4.50;2.77;;;15.00;80.70;;;;;;5113431;28;20169;-77
2023/03/19 15:22:21;;;;;;;2.80;2.03;;;15.00;82.60;;;;;;5114505;28;20192;-78
2023/03/19 15:24:47;;;;;;;3.37;2.33;;;15.00;81.90;;;;;;5115295;28;20167;-77
2023/03/19 15:27:17;;;;;;;4.20;2.57;;;15.00;81.40;;;;;;5114705;28;20201;-77
2023/03/19 15:29:42;;;;;;;4.87;2.93;;;14.90;83.30;;;;;;5115085;28;20168;-78
2023/03/19 15:32:09;;;;;;;3.23;2.30;;;14.90;86.80;;;;;;5113195;28;20257;-76
2023/03/19 15:34:36;;;;;;;2.97;2.37;;;14.90;85.50;;;;;;5112933;28;20188;-76
2023/03/19 15:37:07;;;;;;;4.00;2.63;;;14.80;85.60;;;;;;5112800;28;20172;-76
2023/03/19 15:39:36;;;;;;;3.33;2.23;;;14.80;85.90;;;;;;5114389;28;20149;-77
2023/03/19 15:42:05;;;;;;;4.73;2.87;;;14.80;87.50;;;;;;5113896;28;20679;-77
2023/03/19 15:44:43;;;;;;;14.40;6.13;;;14.60;87.10;;;;;;5114517;28;20176;-76
2023/03/19 15:47:13;;;;;;;5.47;3.37;;;14.40;90.80;;;;;;5114112;28;20149;-77
2023/03/19 15:49:46;;;;;;;6.87;3.07;;;14.40;90.90;;;;;;5114649;28;20222;-77
2023/03/19 15:52:16;;;;;;;5.40;3.40;;;14.50;90.60;;;;;;5112745;28;20616;-77
2023/03/19 15:54:42;;;;;;;4.17;2.17;;;14.50;89.90;;;;;;5112918;28;20614;-76
2023/03/19 15:57:11;;;;;;;4.03;2.37;;;14.50;90.10;;;;;;5114582;28;20523;-76
2023/03/19 15:59:37;;;;;;;4.23;2.20;;;14.40;90.70;;;;;;5114063;28;20633;-76
2023/03/19 16:02:20;;;;;;;3.47;2.50;;;14.40;90.90;;;;;;5113929;28;20208;-76
2023/03/19 16:04:46;;;;;;;2.90;1.93;;;14.40;89.70;;;;;;5112704;28;20167;-77
2023/03/19 16:07:31;;;;;;;3.23;1.97;;;14.40;90.90;;;;;;5113145;28;20180;-76
2023/03/19 16:09:58;;;;;;;4.00;2.40;;;14.30;91.70;;;;;;5114279;28;20218;-76
2023/03/19 16:12:40;;;;;;;3.33;2.30;;;14.20;90.10;;;;;;5113934;28;20295;-77
2023/03/19 16:15:33;;;;;;;4.50;2.50;;;14.20;90.60;;;;;;5114114;28;20169;-76
2023/03/19 16:18:19;;;;;;;3.20;2.27;;;14.10;90.10;;;;;;5115027;28;20597;-77
2023/03/19 16:20:56;;;;;;;4.57;2.53;;;14.10;91.40;;;;;;5106427;28;20244;-76
2023/03/19 16:23:32;;;;;;;7.17;2.33;;;14.10;91.10;;;;;;5113755;28;20157;-76
2023/03/19 16:26:18;;;;;;;13.67;6.43;;;14.10;91.80;;;;;;5113915;28;20205;-77
2023/03/19 16:29:10;;;;;;;8.40;3.87;;;14.00;91.80;;;;;;5113939;28;20175;-77
2023/03/19 16:31:45;;;;;;;4.57;2.80;;;14.00;93.50;;;;;;5113891;28;20290;-76
2023/03/19 16:34:38;;;;;;;4.10;2.60;;;13.80;91.70;;;;;;5117365;28;20236;-76
2023/03/19 16:37:37;;;;;;;6.43;2.47;;;13.70;91.50;;;;;;5113367;28;20185;-76
